sensor_id;sensor_type;location;lat;lon;timestamp;temperature;humidity
40253;DHT22;25972;51.854;4.534;2022-10-16T00:01:34;13.70;99.90
40253;DHT22;25972;51.854;4.534;2022-10-16T00:04:01;13.70;99.90
40253;DHT22;25972;51.854;4.534;2022-10-16T00:06:30;13.70;99.90
40253;DHT22;25972;51.854;4.534;2022-10-16T00:08:56;13.70;99.90
40253;DHT22;25972;51.854;4.534;2022-10-16T00:11:25;13.80;99.90
40253;DHT22;25972;51.854;4.534;2022-10-16T00:13:56;13.80;99.90
40253;DHT22;25972;51.854;4.534;2022-10-16T00:16:23;13.80;99.90
40253;DHT22;25972;51.854;4.534;2022-10-16T00:18:48;13.80;99.90
40253;DHT22;25972;51.854;4.534;2022-10-16T00:21:21;13.80;99.90
40253;DHT22;25972;51.854;4.534;2022-10-16T00:23:50;13.90;99.90
40253;DHT22;25972;51.854;4.534;2022-10-16T00:26:17;13.90;99.90
40253;DHT22;25972;51.854;4.534;2022-10-16T00:28:48;13.90;99.90
40253;DHT22;25972;51.854;4.534;2022-10-16T00:31:15;13.90;99.90
40253;DHT22;25972;51.854;4.534;2022-10-16T00:33:42;14.00;99.90
40253;DHT22;25972;51.854;4.534;2022-10-16T00:36:11;14.00;99.90
40253;DHT22;25972;51.854;4.534;2022-10-16T00:38:37;14.00;99.90
40253;DHT22;25972;51.854;4.534;2022-10-16T00:41:04;14.10;99.90
40253;DHT22;25972;51.854;4.534;2022-10-16T00:43:40;14.00;99.90
40253;DHT22;25972;51.854;4.534;2022-10-16T00:46:39;14.10;99.90
40253;DHT22;25972;51.854;4.534;2022-10-16T00:49:12;14.10;99.90
40253;DHT22;25972;51.854;4.534;2022-10-16T00:51:42;14.10;99.90
40253;DHT22;25972;51.854;4.534;2022-10-16T00:54:13;14.00;99.90
40253;DHT22;25972;51.854;4.534;2022-10-16T00:56:40;13.80;99.90
40253;DHT22;25972;51.854;4.534;2022-10-16T00:59:14;13.70;99.90
40253;DHT22;25972;51.854;4.534;2022-10-16T01:01:40;13.70;99.90
40253;DHT22;25972;51.854;4.534;2022-10-16T01:04:06;13.60;99.90
40253;DHT22;25972;51.854;4.534;2022-10-16T01:06:50;13.50;99.90
40253;DHT22;25972;51.854;4.534;2022-10-16T01:15:19;13.40;99.90
40253;DHT22;25972;51.854;4.534;2022-10-16T01:21:04;13.30;99.90
40253;DHT22;25972;51.854;4.534;2022-10-16T01:31:44;13.20;99.90
40253;DHT22;25972;51.854;4.534;2022-10-16T01:34:14;13.20;99.90
40253;DHT22;25972;51.854;4.534;2022-10-16T01:36:56;13.10;99.90
40253;DHT22;25972;51.854;4.534;2022-10-16T01:39:28;13.10;99.90
40253;DHT22;25972;51.854;4.534;2022-10-16T01:42:00;13.10;99.90
40253;DHT22;25972;51.854;4.534;2022-10-16T01:44:30;13.00;99.90
40253;DHT22;25972;51.854;4.534;2022-10-16T01:46:57;13.00;99.90
40253;DHT22;25972;51.854;4.534;2022-10-16T01:49:26;13.00;99.90
40253;DHT22;25972;51.854;4.534;2022-10-16T01:51:57;13.00;99.90
40253;DHT22;25972;51.854;4.534;2022-10-16T01:54:27;13.00;99.90
40253;DHT22;25972;51.854;4.534;2022-10-16T01:56:55;13.00;99.90
40253;DHT22;25972;51.854;4.534;2022-10-16T01:59:23;12.90;99.90
40253;DHT22;25972;51.854;4.534;2022-10-16T02:01:52;13.00;99.90
40253;DHT22;25972;51.854;4.534;2022-10-16T02:04:29;13.00;99.90
40253;DHT22;25972;51.854;4.534;2022-10-16T02:06:57;13.00;99.90
40253;DHT22;25972;51.854;4.534;2022-10-16T02:09:23;13.10;99.90
40253;DHT22;25972;51.854;4.534;2022-10-16T02:11:51;13.00;99.90
40253;DHT22;25972;51.854;4.534;2022-10-16T02:14:19;13.00;99.90
40253;DHT22;25972;51.854;4.534;2022-10-16T02:16:46;13.00;99.90
40253;DHT22;25972;51.854;4.534;2022-10-16T02:19:13;13.10;99.90
40253;DHT22;25972;51.854;4.534;2022-10-16T02:21:58;13.10;99.90
40253;DHT22;25972;51.854;4.534;2022-10-16T02:27:32;13.00;99.90
40253;DHT22;25972;51.854;4.534;2022-10-16T02:30:05;13.10;99.90
40253;DHT22;25972;51.854;4.534;2022-10-16T02:32:34;13.10;99.90
40253;DHT22;25972;51.854;4.534;2022-10-16T02:35:00;13.10;99.90
40253;DHT22;25972;51.854;4.534;2022-10-16T02:37:27;13.10;99.90
40253;DHT22;25972;51.854;4.534;2022-10-16T02:39:55;13.20;99.90
40253;DHT22;25972;51.854;4.534;2022-10-16T02:42:26;13.10;99.90
40253;DHT22;25972;51.854;4.534;2022-10-16T02:44:52;13.20;99.90
40253;DHT22;25972;51.854;4.534;2022-10-16T02:47:18;13.20;99.90
40253;DHT22;25972;51.854;4.534;2022-10-16T02:49:44;13.10;99.90
40253;DHT22;25972;51.854;4.534;2022-10-16T02:52:09;13.20;99.90
40253;DHT22;25972;51.854;4.534;2022-10-16T02:54:35;13.10;99.90
40253;DHT22;25972;51.854;4.534;2022-10-16T02:57:01;13.10;99.90
40253;DHT22;25972;51.854;4.534;2022-10-16T02:59:27;13.10;99.90
40253;DHT22;25972;51.854;4.534;2022-10-16T03:01:52;13.00;99.90
40253;DHT22;25972;51.854;4.534;2022-10-16T03:04:18;13.00;99.90
40253;DHT22;25972;51.854;4.534;2022-10-16T03:06:44;12.90;99.90
40253;DHT22;25972;51.854;4.534;2022-10-16T03:09:10;12.90;99.90
40253;DHT22;25972;51.854;4.534;2022-10-16T03:11:35;13.00;99.90
40253;DHT22;25972;51.854;4.534;2022-10-16T03:14:01;13.00;99.90
40253;DHT22;25972;51.854;4.534;2022-10-16T03:16:27;12.90;99.90
40253;DHT22;25972;51.854;4.534;2022-10-16T03:18:53;13.00;99.90
40253;DHT22;25972;51.854;4.534;2022-10-16T03:21:19;12.90;99.90
40253;DHT22;25972;51.854;4.534;2022-10-16T03:23:44;12.90;99.90
40253;DHT22;25972;51.854;4.534;2022-10-16T03:26:10;12.90;99.90
40253;DHT22;25972;51.854;4.534;2022-10-16T03:28:36;12.90;99.90
40253;DHT22;25972;51.854;4.534;2022-10-16T03:31:02;12.90;99.90
40253;DHT22;25972;51.854;4.534;2022-10-16T03:33:27;12.90;99.90
40253;DHT22;25972;51.854;4.534;2022-10-16T03:35:54;12.90;99.90
40253;DHT22;25972;51.854;4.534;2022-10-16T03:38:21;13.00;99.90
40253;DHT22;25972;51.854;4.534;2022-10-16T03:40:47;13.00;99.90
40253;DHT22;25972;51.854;4.534;2022-10-16T03:43:13;13.00;99.90
40253;DHT22;25972;51.854;4.534;2022-10-16T03:45:38;13.00;99.90
40253;DHT22;25972;51.854;4.534;2022-10-16T03:48:05;13.10;99.90
40253;DHT22;25972;51.854;4.534;2022-10-16T03:50:31;13.00;99.90
40253;DHT22;25972;51.854;4.534;2022-10-16T03:52:57;13.10;99.90
40253;DHT22;25972;51.854;4.534;2022-10-16T03:55:22;13.10;99.90
40253;DHT22;25972;51.854;4.534;2022-10-16T03:57:48;13.10;99.90
40253;DHT22;25972;51.854;4.534;2022-10-16T04:00:14;13.10;99.90
40253;DHT22;25972;51.854;4.534;2022-10-16T04:02:40;13.00;99.90
40253;DHT22;25972;51.854;4.534;2022-10-16T04:05:06;13.00;99.90
40253;DHT22;25972;51.854;4.534;2022-10-16T04:07:32;13.00;99.90
40253;DHT22;25972;51.854;4.534;2022-10-16T04:09:58;13.00;99.90
40253;DHT22;25972;51.854;4.534;2022-10-16T04:12:25;12.90;99.90
40253;DHT22;25972;51.854;4.534;2022-10-16T04:14:51;12.90;99.90
40253;DHT22;25972;51.854;4.534;2022-10-16T04:17:17;12.90;99.90
40253;DHT22;25972;51.854;4.534;2022-10-16T04:19:42;12.90;99.90
40253;DHT22;25972;51.854;4.534;2022-10-16T04:22:08;12.90;99.90
40253;DHT22;25972;51.854;4.534;2022-10-16T04:24:34;12.80;99.90
40253;DHT22;25972;51.854;4.534;2022-10-16T04:27:00;12.80;99.90
40253;DHT22;25972;51.854;4.534;2022-10-16T04:29:26;12.80;99.90
40253;DHT22;25972;51.854;4.534;2022-10-16T04:31:51;12.80;99.90
40253;DHT22;25972;51.854;4.534;2022-10-16T04:34:17;12.80;99.90
40253;DHT22;25972;51.854;4.534;2022-10-16T04:36:44;12.70;99.90
40253;DHT22;25972;51.854;4.534;2022-10-16T04:39:12;12.70;99.90
40253;DHT22;25972;51.854;4.534;2022-10-16T04:41:37;12.70;99.90
40253;DHT22;25972;51.854;4.534;2022-10-16T04:44:03;12.70;99.90
40253;DHT22;25972;51.854;4.534;2022-10-16T04:46:29;12.70;99.90
40253;DHT22;25972;51.854;4.534;2022-10-16T04:48:54;12.60;99.90
40253;DHT22;25972;51.854;4.534;2022-10-16T04:51:20;12.70;99.90
40253;DHT22;25972;51.854;4.534;2022-10-16T04:53:46;12.70;99.90
40253;DHT22;25972;51.854;4.534;2022-10-16T04:56:12;12.80;99.90
40253;DHT22;25972;51.854;4.534;2022-10-16T04:58:38;12.80;99.90
40253;DHT22;25972;51.854;4.534;2022-10-16T05:01:04;12.80;99.90
40253;DHT22;25972;51.854;4.534;2022-10-16T05:03:29;12.90;99.90
40253;DHT22;25972;51.854;4.534;2022-10-16T05:05:55;12.90;99.90
40253;DHT22;25972;51.854;4.534;2022-10-16T05:08:22;12.90;99.90
40253;DHT22;25972;51.854;4.534;2022-10-16T05:10:47;12.90;99.90
40253;DHT22;25972;51.854;4.534;2022-10-16T05:13:13;13.00;99.90
40253;DHT22;25972;51.854;4.534;2022-10-16T05:15:39;13.00;99.90
40253;DHT22;25972;51.854;4.534;2022-10-16T05:18:05;13.10;99.90
40253;DHT22;25972;51.854;4.534;2022-10-16T05:20:31;13.10;99.90
40253;DHT22;25972;51.854;4.534;2022-10-16T05:22:56;13.10;99.90
40253;DHT22;25972;51.854;4.534;2022-10-16T05:25:22;13.20;99.90
40253;DHT22;25972;51.854;4.534;2022-10-16T05:27:48;13.20;99.90
40253;DHT22;25972;51.854;4.534;2022-10-16T05:30:14;13.20;99.90
40253;DHT22;25972;51.854;4.534;2022-10-16T05:32:40;13.20;99.90
40253;DHT22;25972;51.854;4.534;2022-10-16T05:35:06;13.20;99.90
40253;DHT22;25972;51.854;4.534;2022-10-16T05:37:32;13.20;99.90
40253;DHT22;25972;51.854;4.534;2022-10-16T05:39:58;13.20;99.90
40253;DHT22;25972;51.854;4.534;2022-10-16T05:42:24;13.30;99.90
40253;DHT22;25972;51.854;4.534;2022-10-16T05:44:50;13.30;99.90
40253;DHT22;25972;51.854;4.534;2022-10-16T05:47:15;13.20;99.90
40253;DHT22;25972;51.854;4.534;2022-10-16T05:49:41;13.30;99.90
40253;DHT22;25972;51.854;4.534;2022-10-16T05:52:07;13.30;99.90
40253;DHT22;25972;51.854;4.534;2022-10-16T05:54:33;13.30;99.90
40253;DHT22;25972;51.854;4.534;2022-10-16T05:56:59;13.20;99.90
40253;DHT22;25972;51.854;4.534;2022-10-16T05:59:24;13.20;99.90
40253;DHT22;25972;51.854;4.534;2022-10-16T06:01:50;13.30;99.90
40253;DHT22;25972;51.854;4.534;2022-10-16T06:04:16;13.30;99.90
40253;DHT22;25972;51.854;4.534;2022-10-16T06:06:42;13.30;99.90
40253;DHT22;25972;51.854;4.534;2022-10-16T06:09:09;13.30;99.90
40253;DHT22;25972;51.854;4.534;2022-10-16T06:11:36;13.30;99.90
40253;DHT22;25972;51.854;4.534;2022-10-16T06:14:02;13.30;99.90
40253;DHT22;25972;51.854;4.534;2022-10-16T06:16:35;13.30;99.90
40253;DHT22;25972;51.854;4.534;2022-10-16T06:19:01;13.30;99.90
40253;DHT22;25972;51.854;4.534;2022-10-16T06:21:28;13.20;99.90
40253;DHT22;25972;51.854;4.534;2022-10-16T06:23:55;13.20;99.90
40253;DHT22;25972;51.854;4.534;2022-10-16T06:26:23;13.20;99.90
40253;DHT22;25972;51.854;4.534;2022-10-16T06:28:49;13.20;99.90
40253;DHT22;25972;51.854;4.534;2022-10-16T06:31:16;13.20;99.90
40253;DHT22;25972;51.854;4.534;2022-10-16T06:33:42;13.20;99.90
40253;DHT22;25972;51.854;4.534;2022-10-16T06:36:11;13.10;99.90
40253;DHT22;25972;51.854;4.534;2022-10-16T06:38:38;13.10;99.90
40253;DHT22;25972;51.854;4.534;2022-10-16T06:41:05;13.00;99.90
40253;DHT22;25972;51.854;4.534;2022-10-16T06:43:31;13.00;99.90
40253;DHT22;25972;51.854;4.534;2022-10-16T06:45:58;13.00;99.90
40253;DHT22;25972;51.854;4.534;2022-10-16T06:48:25;13.10;99.90
40253;DHT22;25972;51.854;4.534;2022-10-16T06:51:04;13.10;99.90
40253;DHT22;25972;51.854;4.534;2022-10-16T06:53:32;13.00;99.90
40253;DHT22;25972;51.854;4.534;2022-10-16T06:56:05;13.00;99.90
40253;DHT22;25972;51.854;4.534;2022-10-16T06:58:31;13.00;99.90
40253;DHT22;25972;51.854;4.534;2022-10-16T07:00:57;13.00;99.90
40253;DHT22;25972;51.854;4.534;2022-10-16T07:03:23;13.00;99.90
40253;DHT22;25972;51.854;4.534;2022-10-16T07:05:48;13.00;99.90
40253;DHT22;25972;51.854;4.534;2022-10-16T07:08:14;13.00;99.90
40253;DHT22;25972;51.854;4.534;2022-10-16T07:10:40;13.00;99.90
40253;DHT22;25972;51.854;4.534;2022-10-16T07:13:06;13.00;99.90
40253;DHT22;25972;51.854;4.534;2022-10-16T07:15:33;13.00;99.90
40253;DHT22;25972;51.854;4.534;2022-10-16T07:17:59;12.90;99.90
40253;DHT22;25972;51.854;4.534;2022-10-16T07:20:25;13.00;99.90
40253;DHT22;25972;51.854;4.534;2022-10-16T07:22:52;13.00;99.90
40253;DHT22;25972;51.854;4.534;2022-10-16T07:25:18;13.10;99.90
40253;DHT22;25972;51.854;4.534;2022-10-16T07:27:43;13.20;99.90
40253;DHT22;25972;51.854;4.534;2022-10-16T07:30:09;13.20;99.90
40253;DHT22;25972;51.854;4.534;2022-10-16T07:32:35;13.30;99.90
40253;DHT22;25972;51.854;4.534;2022-10-16T07:35:01;13.50;99.90
40253;DHT22;25972;51.854;4.534;2022-10-16T07:37:27;13.60;99.90
40253;DHT22;25972;51.854;4.534;2022-10-16T07:39:52;13.60;99.90
40253;DHT22;25972;51.854;4.534;2022-10-16T07:42:18;13.70;99.90
40253;DHT22;25972;51.854;4.534;2022-10-16T07:44:45;13.90;99.90
40253;DHT22;25972;51.854;4.534;2022-10-16T07:47:11;13.90;99.90
40253;DHT22;25972;51.854;4.534;2022-10-16T07:49:37;14.00;99.90
40253;DHT22;25972;51.854;4.534;2022-10-16T07:52:03;14.10;99.90
40253;DHT22;25972;51.854;4.534;2022-10-16T07:54:29;14.20;99.90
40253;DHT22;25972;51.854;4.534;2022-10-16T07:56:54;14.20;99.90
40253;DHT22;25972;51.854;4.534;2022-10-16T07:59:20;14.40;99.90
40253;DHT22;25972;51.854;4.534;2022-10-16T08:01:46;14.40;99.90
40253;DHT22;25972;51.854;4.534;2022-10-16T08:04:12;14.50;99.90
40253;DHT22;25972;51.854;4.534;2022-10-16T08:06:39;14.60;99.90
40253;DHT22;25972;51.854;4.534;2022-10-16T08:09:07;14.60;99.90
40253;DHT22;25972;51.854;4.534;2022-10-16T08:11:33;14.80;99.90
40253;DHT22;25972;51.854;4.534;2022-10-16T08:13:59;14.80;99.90
40253;DHT22;25972;51.854;4.534;2022-10-16T08:16:24;14.90;99.90
40253;DHT22;25972;51.854;4.534;2022-10-16T08:18:50;15.00;99.90
40253;DHT22;25972;51.854;4.534;2022-10-16T08:21:19;15.20;99.90
40253;DHT22;25972;51.854;4.534;2022-10-16T08:23:45;15.20;99.90
40253;DHT22;25972;51.854;4.534;2022-10-16T08:26:11;15.20;99.90
40253;DHT22;25972;51.854;4.534;2022-10-16T08:28:37;15.40;99.90
40253;DHT22;25972;51.854;4.534;2022-10-16T08:31:09;15.40;99.90
40253;DHT22;25972;51.854;4.534;2022-10-16T08:33:35;15.50;99.90
40253;DHT22;25972;51.854;4.534;2022-10-16T08:36:02;15.50;99.90
40253;DHT22;25972;51.854;4.534;2022-10-16T08:38:28;15.70;99.90
40253;DHT22;25972;51.854;4.534;2022-10-16T08:41:02;15.80;99.90
40253;DHT22;25972;51.854;4.534;2022-10-16T08:49:26;16.00;99.90
40253;DHT22;25972;51.854;4.534;2022-10-16T08:51:52;16.00;99.90
40253;DHT22;25972;51.854;4.534;2022-10-16T08:54:37;16.00;99.90
40253;DHT22;25972;51.854;4.534;2022-10-16T08:57:20;16.20;99.90
40253;DHT22;25972;51.854;4.534;2022-10-16T08:59:46;16.40;99.90
40253;DHT22;25972;51.854;4.534;2022-10-16T09:02:34;16.50;99.90
40253;DHT22;25972;51.854;4.534;2022-10-16T09:18:12;16.70;99.90
40253;DHT22;25972;51.854;4.534;2022-10-16T09:20:57;16.80;99.90
40253;DHT22;25972;51.854;4.534;2022-10-16T09:23:30;16.90;99.90
40253;DHT22;25972;51.854;4.534;2022-10-16T09:25:58;16.70;99.90
40253;DHT22;25972;51.854;4.534;2022-10-16T09:28:24;16.80;99.90
40253;DHT22;25972;51.854;4.534;2022-10-16T09:30:50;16.70;99.90
40253;DHT22;25972;51.854;4.534;2022-10-16T09:33:19;16.70;99.90
40253;DHT22;25972;51.854;4.534;2022-10-16T09:35:53;16.60;99.90
40253;DHT22;25972;51.854;4.534;2022-10-16T09:40:52;16.60;99.90
40253;DHT22;25972;51.854;4.534;2022-10-16T09:48:21;16.60;99.90
40253;DHT22;25972;51.854;4.534;2022-10-16T09:50:59;16.60;99.90
40253;DHT22;25972;51.854;4.534;2022-10-16T09:53:56;16.60;99.90
40253;DHT22;25972;51.854;4.534;2022-10-16T09:56:25;16.60;99.90
40253;DHT22;25972;51.854;4.534;2022-10-16T09:58:57;16.70;99.90
40253;DHT22;25972;51.854;4.534;2022-10-16T10:01:31;16.70;99.90
40253;DHT22;25972;51.854;4.534;2022-10-16T10:04:01;16.60;99.90
40253;DHT22;25972;51.854;4.534;2022-10-16T10:06:31;16.70;99.90
40253;DHT22;25972;51.854;4.534;2022-10-16T10:09:22;16.70;99.90
40253;DHT22;25972;51.854;4.534;2022-10-16T10:11:54;16.80;99.90
40253;DHT22;25972;51.854;4.534;2022-10-16T10:16:51;16.90;99.90
40253;DHT22;25972;51.854;4.534;2022-10-16T10:19:22;16.90;99.90
40253;DHT22;25972;51.854;4.534;2022-10-16T10:21:51;17.00;99.90
40253;DHT22;25972;51.854;4.534;2022-10-16T10:24:18;17.00;99.90
40253;DHT22;25972;51.854;4.534;2022-10-16T10:26:59;17.10;99.90
40253;DHT22;25972;51.854;4.534;2022-10-16T10:29:41;17.10;99.90
40253;DHT22;25972;51.854;4.534;2022-10-16T10:32:35;17.20;99.90
40253;DHT22;25972;51.854;4.534;2022-10-16T10:35:14;17.20;99.90
40253;DHT22;25972;51.854;4.534;2022-10-16T10:38:02;17.30;99.90
40253;DHT22;25972;51.854;4.534;2022-10-16T10:40:52;17.20;99.90
40253;DHT22;25972;51.854;4.534;2022-10-16T10:46:50;17.20;99.90
40253;DHT22;25972;51.854;4.534;2022-10-16T10:49:24;17.30;99.90
40253;DHT22;25972;51.854;4.534;2022-10-16T10:55:00;17.40;99.90
40253;DHT22;25972;51.854;4.534;2022-10-16T11:00:58;17.40;99.90
40253;DHT22;25972;51.854;4.534;2022-10-16T11:06:30;17.60;99.90
40253;DHT22;25972;51.854;4.534;2022-10-16T11:09:23;17.50;99.90
40253;DHT22;25972;51.854;4.534;2022-10-16T11:11:58;17.40;99.90
40253;DHT22;25972;51.854;4.534;2022-10-16T11:14:39;17.40;99.90
40253;DHT22;25972;51.854;4.534;2022-10-16T11:20:26;17.70;99.90
40253;DHT22;25972;51.854;4.534;2022-10-16T11:25:41;18.40;99.90
40253;DHT22;25972;51.854;4.534;2022-10-16T11:28:18;18.50;99.90
40253;DHT22;25972;51.854;4.534;2022-10-16T11:31:08;18.50;99.90
40253;DHT22;25972;51.854;4.534;2022-10-16T11:33:41;18.50;99.90
40253;DHT22;25972;51.854;4.534;2022-10-16T11:36:25;18.70;99.90
40253;DHT22;25972;51.854;4.534;2022-10-16T11:44:33;18.80;99.90
40253;DHT22;25972;51.854;4.534;2022-10-16T11:55:36;18.40;99.90
40253;DHT22;25972;51.854;4.534;2022-10-16T12:06:25;18.10;99.90
40253;DHT22;25972;51.854;4.534;2022-10-16T12:08:54;17.90;99.90
40253;DHT22;25972;51.854;4.534;2022-10-16T12:14:03;17.90;99.90
40253;DHT22;25972;51.854;4.534;2022-10-16T12:16:32;17.90;99.90
40253;DHT22;25972;51.854;4.534;2022-10-16T12:19:14;17.90;99.90
40253;DHT22;25972;51.854;4.534;2022-10-16T12:21:41;17.90;99.90
40253;DHT22;25972;51.854;4.534;2022-10-16T12:24:29;17.90;99.90
40253;DHT22;25972;51.854;4.534;2022-10-16T12:26:57;17.80;99.90
40253;DHT22;25972;51.854;4.534;2022-10-16T12:31:57;17.80;99.90
40253;DHT22;25972;51.854;4.534;2022-10-16T12:34:59;17.80;99.90
40253;DHT22;25972;51.854;4.534;2022-10-16T12:37:36;17.70;99.90
40253;DHT22;25972;51.854;4.534;2022-10-16T12:40:24;17.60;99.90
40253;DHT22;25972;51.854;4.534;2022-10-16T12:42:50;17.80;99.90
40253;DHT22;25972;51.854;4.534;2022-10-16T12:45:29;17.70;99.90
40253;DHT22;25972;51.854;4.534;2022-10-16T12:47:57;17.70;99.90
40253;DHT22;25972;51.854;4.534;2022-10-16T12:50:34;17.70;99.90
40253;DHT22;25972;51.854;4.534;2022-10-16T12:53:01;17.80;99.90
40253;DHT22;25972;51.854;4.534;2022-10-16T12:55:35;17.90;99.90
40253;DHT22;25972;51.854;4.534;2022-10-16T13:01:10;18.10;99.90
40253;DHT22;25972;51.854;4.534;2022-10-16T13:09:45;18.20;99.90
40253;DHT22;25972;51.854;4.534;2022-10-16T13:18:48;18.00;99.90
40253;DHT22;25972;51.854;4.534;2022-10-16T13:30:01;18.20;99.90
40253;DHT22;25972;51.854;4.534;2022-10-16T13:32:28;18.30;99.90
40253;DHT22;25972;51.854;4.534;2022-10-16T13:34:54;18.40;99.90
40253;DHT22;25972;51.854;4.534;2022-10-16T13:37:24;18.50;99.90
40253;DHT22;25972;51.854;4.534;2022-10-16T13:39:50;18.60;99.90
40253;DHT22;25972;51.854;4.534;2022-10-16T13:42:26;18.50;99.90
40253;DHT22;25972;51.854;4.534;2022-10-16T13:44:54;18.40;99.90
40253;DHT22;25972;51.854;4.534;2022-10-16T13:47:25;18.40;99.90
40253;DHT22;25972;51.854;4.534;2022-10-16T13:50:03;18.40;99.90
40253;DHT22;25972;51.854;4.534;2022-10-16T13:52:30;18.50;99.90
40253;DHT22;25972;51.854;4.534;2022-10-16T13:54:55;18.40;99.90
40253;DHT22;25972;51.854;4.534;2022-10-16T13:57:23;18.40;99.90
40253;DHT22;25972;51.854;4.534;2022-10-16T13:59:49;18.30;99.90
40253;DHT22;25972;51.854;4.534;2022-10-16T14:02:31;18.40;99.90
40253;DHT22;25972;51.854;4.534;2022-10-16T14:05:02;18.40;99.90
40253;DHT22;25972;51.854;4.534;2022-10-16T14:07:30;18.40;99.90
40253;DHT22;25972;51.854;4.534;2022-10-16T14:10:01;18.30;99.90
40253;DHT22;25972;51.854;4.534;2022-10-16T14:12:27;18.30;99.90
40253;DHT22;25972;51.854;4.534;2022-10-16T14:14:54;18.30;99.90
40253;DHT22;25972;51.854;4.534;2022-10-16T14:17:28;18.20;99.90
40253;DHT22;25972;51.854;4.534;2022-10-16T14:19:57;18.20;99.90
40253;DHT22;25972;51.854;4.534;2022-10-16T14:24:49;18.30;99.90
40253;DHT22;25972;51.854;4.534;2022-10-16T14:27:33;18.30;99.90
40253;DHT22;25972;51.854;4.534;2022-10-16T14:30:26;18.30;99.90
40253;DHT22;25972;51.854;4.534;2022-10-16T14:32:56;18.30;99.90
40253;DHT22;25972;51.854;4.534;2022-10-16T14:35:23;18.40;99.90
40253;DHT22;25972;51.854;4.534;2022-10-16T14:37:57;18.40;99.90
40253;DHT22;25972;51.854;4.534;2022-10-16T14:40:26;18.40;99.90
40253;DHT22;25972;51.854;4.534;2022-10-16T14:42:53;18.40;99.90
40253;DHT22;25972;51.854;4.534;2022-10-16T14:45:21;18.30;99.90
40253;DHT22;25972;51.854;4.534;2022-10-16T14:47:54;18.30;99.90
40253;DHT22;25972;51.854;4.534;2022-10-16T14:50:21;18.30;99.90
40253;DHT22;25972;51.854;4.534;2022-10-16T14:52:47;18.30;99.90
40253;DHT22;25972;51.854;4.534;2022-10-16T14:55:12;18.30;99.90
40253;DHT22;25972;51.854;4.534;2022-10-16T14:57:39;18.30;99.90
40253;DHT22;25972;51.854;4.534;2022-10-16T15:00:31;18.30;99.90
40253;DHT22;25972;51.854;4.534;2022-10-16T15:02:57;18.20;99.90
40253;DHT22;25972;51.854;4.534;2022-10-16T15:05:25;18.10;99.90
40253;DHT22;25972;51.854;4.534;2022-10-16T15:07:53;18.10;99.90
40253;DHT22;25972;51.854;4.534;2022-10-16T15:10:20;18.10;99.90
40253;DHT22;25972;51.854;4.534;2022-10-16T15:12:46;18.10;99.90
40253;DHT22;25972;51.854;4.534;2022-10-16T15:17:49;18.00;99.90
40253;DHT22;25972;51.854;4.534;2022-10-16T15:20:18;17.90;99.90
40253;DHT22;25972;51.854;4.534;2022-10-16T15:22:44;17.90;99.90
40253;DHT22;25972;51.854;4.534;2022-10-16T15:25:29;17.80;99.90
40253;DHT22;25972;51.854;4.534;2022-10-16T15:27:56;17.80;99.90
40253;DHT22;25972;51.854;4.534;2022-10-16T15:30:21;17.80;99.90
40253;DHT22;25972;51.854;4.534;2022-10-16T15:32:47;17.70;99.90
40253;DHT22;25972;51.854;4.534;2022-10-16T15:35:13;17.70;99.90
40253;DHT22;25972;51.854;4.534;2022-10-16T15:37:39;17.60;99.90
40253;DHT22;25972;51.854;4.534;2022-10-16T15:40:05;17.60;99.90
40253;DHT22;25972;51.854;4.534;2022-10-16T15:42:31;17.50;99.90
40253;DHT22;25972;51.854;4.534;2022-10-16T15:44:57;17.40;99.90
40253;DHT22;25972;51.854;4.534;2022-10-16T15:47:22;17.40;99.90
40253;DHT22;25972;51.854;4.534;2022-10-16T15:49:48;17.40;99.90
40253;DHT22;25972;51.854;4.534;2022-10-16T15:52:14;17.30;99.90
40253;DHT22;25972;51.854;4.534;2022-10-16T15:54:40;17.30;99.90
40253;DHT22;25972;51.854;4.534;2022-10-16T15:57:05;17.30;99.90
40253;DHT22;25972;51.854;4.534;2022-10-16T15:59:31;17.20;99.90
40253;DHT22;25972;51.854;4.534;2022-10-16T16:01:57;17.20;99.90
40253;DHT22;25972;51.854;4.534;2022-10-16T16:04:23;17.20;99.90
40253;DHT22;25972;51.854;4.534;2022-10-16T16:06:49;17.10;99.90
40253;DHT22;25972;51.854;4.534;2022-10-16T16:09:15;17.10;99.90
40253;DHT22;25972;51.854;4.534;2022-10-16T16:11:41;17.10;99.90
40253;DHT22;25972;51.854;4.534;2022-10-16T16:14:09;17.00;99.90
40253;DHT22;25972;51.854;4.534;2022-10-16T16:16:37;17.10;99.90
40253;DHT22;25972;51.854;4.534;2022-10-16T16:19:06;17.00;99.90
40253;DHT22;25972;51.854;4.534;2022-10-16T16:21:35;17.00;99.90
40253;DHT22;25972;51.854;4.534;2022-10-16T16:24:01;16.90;99.90
40253;DHT22;25972;51.854;4.534;2022-10-16T16:26:34;16.90;99.90
40253;DHT22;25972;51.854;4.534;2022-10-16T16:29:03;16.80;99.90
40253;DHT22;25972;51.854;4.534;2022-10-16T16:31:30;16.80;99.90
40253;DHT22;25972;51.854;4.534;2022-10-16T16:33:57;16.70;99.90
40253;DHT22;25972;51.854;4.534;2022-10-16T16:36:24;16.70;99.90
40253;DHT22;25972;51.854;4.534;2022-10-16T16:38:51;16.70;99.90
40253;DHT22;25972;51.854;4.534;2022-10-16T16:41:22;16.70;99.90
40253;DHT22;25972;51.854;4.534;2022-10-16T16:43:48;16.70;99.90
40253;DHT22;25972;51.854;4.534;2022-10-16T16:46:16;16.60;99.90
40253;DHT22;25972;51.854;4.534;2022-10-16T16:48:42;16.60;99.90
40253;DHT22;25972;51.854;4.534;2022-10-16T16:51:16;16.50;99.90
40253;DHT22;25972;51.854;4.534;2022-10-16T16:53:44;16.50;99.90
40253;DHT22;25972;51.854;4.534;2022-10-16T16:56:10;16.50;99.90
40253;DHT22;25972;51.854;4.534;2022-10-16T16:58:36;16.40;99.90
40253;DHT22;25972;51.854;4.534;2022-10-16T17:01:03;16.40;99.90
40253;DHT22;25972;51.854;4.534;2022-10-16T17:03:30;16.40;99.90
40253;DHT22;25972;51.854;4.534;2022-10-16T17:06:02;16.40;99.90
40253;DHT22;25972;51.854;4.534;2022-10-16T17:08:28;16.40;99.90
40253;DHT22;25972;51.854;4.534;2022-10-16T17:10:56;16.40;99.90
40253;DHT22;25972;51.854;4.534;2022-10-16T17:13:23;16.30;99.90
40253;DHT22;25972;51.854;4.534;2022-10-16T17:15:50;16.30;99.90
40253;DHT22;25972;51.854;4.534;2022-10-16T17:18:16;16.30;99.90
40253;DHT22;25972;51.854;4.534;2022-10-16T17:20:42;16.30;99.90
40253;DHT22;25972;51.854;4.534;2022-10-16T17:23:09;16.20;99.90
40253;DHT22;25972;51.854;4.534;2022-10-16T17:25:37;16.20;99.90
40253;DHT22;25972;51.854;4.534;2022-10-16T17:28:04;16.20;99.90
40253;DHT22;25972;51.854;4.534;2022-10-16T17:30:30;16.20;99.90
40253;DHT22;25972;51.854;4.534;2022-10-16T17:32:56;16.10;99.90
40253;DHT22;25972;51.854;4.534;2022-10-16T17:35:21;16.10;99.90
40253;DHT22;25972;51.854;4.534;2022-10-16T17:37:47;16.10;99.90
40253;DHT22;25972;51.854;4.534;2022-10-16T17:40:13;16.10;99.90
40253;DHT22;25972;51.854;4.534;2022-10-16T17:42:39;16.10;99.90
40253;DHT22;25972;51.854;4.534;2022-10-16T17:45:05;16.10;99.90
40253;DHT22;25972;51.854;4.534;2022-10-16T17:47:31;16.10;99.90